Bookmark and Share
Track history (hours):
 

Alianca Shanghai

Last reported at 2014-Apr-23 00:05 UTC. Time now 2014-Apr-23 12:44 UTC.
Position N 09°18' W 013°44'.

Length 199.9 m; beam 29.8 m; draft 11.6 m.

Type: Ship (hazmat cat A). MMSI: 636016014.

NotesDate/timePositionNaut miles runAvg speedWind from/ knotsBaromVisibWave heightAir tempDewpointWater temp
2014-Apr-23 00:05N 09°18' W 013°44'713.5
2014-Apr-22 23:33N 09°26' W 013°43'5 5.1
2014-Apr-22 22:33N 09°31' W 013°43'0 0.0
2014-Apr-22 21:31N 09°31' W 013°43'0 0.0
2014-Apr-22 20:31N 09°31' W 013°43'0 0.0
2014-Apr-22 19:31N 09°31' W 013°43'0 0.0
2014-Apr-22 18:31N 09°31' W 013°43'0 0.0
2014-Apr-22 17:31N 09°31' W 013°43'0 0.0
2014-Apr-22 16:31N 09°31' W 013°43'0 0.0
2014-Apr-22 15:31N 09°31' W 013°43'0 0.0
2014-Apr-22 14:31N 09°31' W 013°43'0 0.0
2014-Apr-22 13:31N 09°31' W 013°43'0 0.0
2014-Apr-22 12:31N 09°31' W 013°43'0 0.0
2014-Apr-22 11:31N 09°31' W 013°43'0 0.0
2014-Apr-22 10:28N 09°31' W 013°43'0 0.0
2014-Apr-22 09:31N 09°31' W 013°43'0 0.0
2014-Apr-22 08:31N 09°31' W 013°43'0 0.0
2014-Apr-22 07:31N 09°31' W 013°43'0 0.0
2014-Apr-22 06:31N 09°31' W 013°43'0 0.0
2014-Apr-22 05:31N 09°31' W 013°43'0 0.0
2014-Apr-22 04:31N 09°31' W 013°43'0 0.0
2014-Apr-22 03:31N 09°31' W 013°43'0 0.0
2014-Apr-22 02:31N 09°31' W 013°43'0 0.0
2014-Apr-22 01:31N 09°31' W 013°43'0 0.0
2014-Apr-22 00:31N 09°31' W 013°43'0 0.0
2014-Apr-21 23:31N 09°31' W 013°43'0 0.0
2014-Apr-21 22:32N 09°31' W 013°43'0 0.0
2014-Apr-21 21:31N 09°31' W 013°43'0 0.0
2014-Apr-21 20:31N 09°31' W 013°43'0 0.0
2014-Apr-21 19:31N 09°31' W 013°43'0 0.0
2014-Apr-21 18:31N 09°31' W 013°43'0 0.0
2014-Apr-21 17:31N 09°31' W 013°43'0 0.0
2014-Apr-21 16:31N 09°31' W 013°43'0 0.0
2014-Apr-21 15:31N 09°31' W 013°43'0 0.0
2014-Apr-21 14:31N 09°31' W 013°43'0 0.0
2014-Apr-21 13:31N 09°31' W 013°43'0 0.0
2014-Apr-21 12:31N 09°31' W 013°43'2 2.3
2014-Apr-21 11:33N 09°29' W 013°44'30 9.7
2014-Apr-21 08:29N 09°19' W 014°12'1 0.9
2014-Apr-21 07:34N 09°19' W 014°13'1 0.5
2014-Apr-21 06:32N 09°19' W 014°14'0 0.3
2014-Apr-21 05:29N 09°19' W 014°14'0 0.5
2014-Apr-21 04:31N 09°19' W 014°14'2 0.4
2014-Apr-20 23:34N 09°21' W 014°14'1 0.6
2014-Apr-20 22:34N 09°21' W 014°14'1 1.0
2014-Apr-20 21:34N 09°20' W 014°15'1 1.0
2014-Apr-20 20:33N 09°19' W 014°16'1 0.8
2014-Apr-20 19:28N 09°19' W 014°16'1 0.6
2014-Apr-20 18:20N 09°19' W 014°17'0 0.2
2014-Apr-20 17:32N 09°18' W 014°17'1 0.1
2014-Apr-20 07:17N 09°18' W 014°19'1 0.5
2014-Apr-20 05:29N 09°17' W 014°19'0 0.3
2014-Apr-20 04:32N 09°18' W 014°19'1 0.5
2014-Apr-20 03:27N 09°18' W 014°19'1 0.9
2014-Apr-20 02:29N 09°19' W 014°18'1 0.9
2014-Apr-20 01:33N 09°20' W 014°18'1 0.9
2014-Apr-20 00:33N 09°20' W 014°18'0 0.4
2014-Apr-19 23:33N 09°21' W 014°17'0 0.3
2014-Apr-19 22:29N 09°21' W 014°18'4 0.2
2014-Apr-19 04:09N 09°19' W 014°21'0 0.6
2014-Apr-19 03:28N 09°19' W 014°21'7 0.8
2014-Apr-18 18:34N 09°22' W 014°15'1513.4
2014-Apr-18 17:26N 09°22' W 013°59'  

Dump ship's entire track history

sailing weather and tide predictions

Alianca Shanghai — A8CQ5 — position and weather